Tsabong, Botswana
Current Conditions -  °F | °C
As of 6:00 PM on Thursday 23 Oct 2014 (Local Time) from FAUP Reporting Station
Few Clouds Few Clouds  
Wind Chill: 88°   Ceiling: Unl
Heat Index: 88°   Visibility: 6mi
Dew Point: 18°   Wind: 13mph
Humidity: 8%   Direction: 260°W
Pressure: 29.85"   Gusts: NA
Location:  26.01°S, 22.4°E
Report Text: FAUP 231600Z 26011KT 9999 FEW050 FEW060CB 31/M08 Q1011 NOSIG
Loading
Personal Weather Stations






























Interactive Weather Map
Tropical Storm Tracking
New forecast layout! Learn more

10-Day Weather Forecast

Advertisements
Track Severe Weather on mobile